PSF weather

Pittsfield Municipal Airport
Pittsfield, Massachusetts, United States

Public forecast

Using degrees Fahrenheit for public forecast. Weather courtesy of forecast.io.

METAR (pilot weather report)

Retrieved 2019/07/22 17:54 UTC (19 minutes ago):

KPSF 221754Z AUTO 05007KT 8SM -RA OVC042 19/17 A2988 RMK AO2 RAB01 SLP094 P0006 60014 T01890172 10222 20189 56013

TAF (pilot weather forecast)

Retrieved 2019/07/22 18:30 UTC (0 seconds ago):

TAF KPSF 221728Z 2218/2318 VRB03KT P6SM -SHRA BKN050 OVC060 TEMPO 2220/2224 2SM RA OVC015 FM230000 02006KT 2SM RA OVC015 FM230300 02005KT 6SM -SHRA OVC003 FM230600 34004KT P6SM OVC003 PROB30 2306/2312 4SM -RA